sensor_id;sensor_type;location;lat;lon;timestamp;pressure;altitude;pressure_sealevel;temperature
69857;BMP280;57147;53.582;10.112;2022-09-23T00:01:03;101908.38;;;7.89
69857;BMP280;57147;53.582;10.112;2022-09-23T00:06:06;101890.28;;;7.81
69857;BMP280;57147;53.582;10.112;2022-09-23T00:11:09;101899.88;;;7.87
69857;BMP280;57147;53.582;10.112;2022-09-23T00:16:14;101871.97;;;7.62
69857;BMP280;57147;53.582;10.112;2022-09-23T00:21:14;101891.22;;;7.75
69857;BMP280;57147;53.582;10.112;2022-09-23T00:26:18;101887.03;;;7.62
69857;BMP280;57147;53.582;10.112;2022-09-23T00:31:24;101889.94;;;7.60
69857;BMP280;57147;53.582;10.112;2022-09-23T00:36:25;101893.53;;;7.54
69857;BMP280;57147;53.582;10.112;2022-09-23T00:41:26;101871.00;;;7.52
69857;BMP280;57147;53.582;10.112;2022-09-23T00:46:34;101877.75;;;7.59
69857;BMP280;57147;53.582;10.112;2022-09-23T00:51:38;101876.47;;;7.62
69857;BMP280;57147;53.582;10.112;2022-09-23T00:56:40;101847.00;;;7.53
69857;BMP280;57147;53.582;10.112;2022-09-23T01:01:43;101868.97;;;7.71
69857;BMP280;57147;53.582;10.112;2022-09-23T01:06:45;101871.50;;;7.66
69857;BMP280;57147;53.582;10.112;2022-09-23T01:11:49;101859.97;;;7.55
69857;BMP280;57147;53.582;10.112;2022-09-23T01:16:59;101852.94;;;7.60
69857;BMP280;57147;53.582;10.112;2022-09-23T01:22:07;101831.31;;;7.47
69857;BMP280;57147;53.582;10.112;2022-09-23T01:27:39;101844.50;;;7.63
69857;BMP280;57147;53.582;10.112;2022-09-23T01:32:55;101842.84;;;7.57
69857;BMP280;57147;53.582;10.112;2022-09-23T01:38:04;101818.66;;;7.49
69857;BMP280;57147;53.582;10.112;2022-09-23T01:43:09;101835.47;;;7.59
69857;BMP280;57147;53.582;10.112;2022-09-23T01:48:16;101824.75;;;7.49
69857;BMP280;57147;53.582;10.112;2022-09-23T01:53:25;101822.91;;;7.50
69857;BMP280;57147;53.582;10.112;2022-09-23T01:58:32;101807.28;;;7.48
69857;BMP280;57147;53.582;10.112;2022-09-23T02:03:41;101810.50;;;7.50
69857;BMP280;57147;53.582;10.112;2022-09-23T02:08:46;101797.81;;;7.52
69857;BMP280;57147;53.582;10.112;2022-09-23T02:13:51;101784.69;;;7.57
69857;BMP280;57147;53.582;10.112;2022-09-23T02:18:57;101800.84;;;7.78
69857;BMP280;57147;53.582;10.112;2022-09-23T02:24:03;101779.06;;;7.71
69857;BMP280;57147;53.582;10.112;2022-09-23T02:29:09;101776.50;;;7.76
69857;BMP280;57147;53.582;10.112;2022-09-23T02:34:23;101784.09;;;7.89
69857;BMP280;57147;53.582;10.112;2022-09-23T02:39:32;101783.56;;;7.92
69857;BMP280;57147;53.582;10.112;2022-09-23T02:44:34;101785.13;;;7.88
69857;BMP280;57147;53.582;10.112;2022-09-23T02:49:38;101784.00;;;7.84
69857;BMP280;57147;53.582;10.112;2022-09-23T02:54:39;101750.91;;;7.59
69857;BMP280;57147;53.582;10.112;2022-09-23T02:59:40;101767.84;;;7.63
69857;BMP280;57147;53.582;10.112;2022-09-23T03:04:46;101765.72;;;7.60
69857;BMP280;57147;53.582;10.112;2022-09-23T03:09:54;101768.50;;;7.54
69857;BMP280;57147;53.582;10.112;2022-09-23T03:15:06;101759.16;;;7.46
69857;BMP280;57147;53.582;10.112;2022-09-23T03:20:14;101736.53;;;7.34
69857;BMP280;57147;53.582;10.112;2022-09-23T03:25:20;101751.72;;;7.43
69857;BMP280;57147;53.582;10.112;2022-09-23T03:30:21;101747.00;;;7.45
69857;BMP280;57147;53.582;10.112;2022-09-23T03:35:27;101722.16;;;7.46
69857;BMP280;57147;53.582;10.112;2022-09-23T03:40:32;101721.81;;;7.59
69857;BMP280;57147;53.582;10.112;2022-09-23T03:45:34;101739.59;;;7.86
69857;BMP280;57147;53.582;10.112;2022-09-23T03:50:37;101732.28;;;7.93
69857;BMP280;57147;53.582;10.112;2022-09-23T03:55:37;101714.69;;;7.82
69857;BMP280;57147;53.582;10.112;2022-09-23T04:00:38;101733.97;;;7.99
69857;BMP280;57147;53.582;10.112;2022-09-23T04:05:41;101727.19;;;8.08
69857;BMP280;57147;53.582;10.112;2022-09-23T04:10:42;101720.09;;;8.14
69857;BMP280;57147;53.582;10.112;2022-09-23T04:15:42;101711.81;;;8.05
69857;BMP280;57147;53.582;10.112;2022-09-23T04:20:45;101704.31;;;7.97
69857;BMP280;57147;53.582;10.112;2022-09-23T04:25:46;101700.31;;;7.94
69857;BMP280;57147;53.582;10.112;2022-09-23T04:30:47;101695.81;;;7.95
69857;BMP280;57147;53.582;10.112;2022-09-23T04:35:51;101688.44;;;7.97
69857;BMP280;57147;53.582;10.112;2022-09-23T04:40:52;101688.56;;;8.07
69857;BMP280;57147;53.582;10.112;2022-09-23T04:45:59;101688.06;;;8.10
69857;BMP280;57147;53.582;10.112;2022-09-23T04:51:07;101693.34;;;8.10
69857;BMP280;57147;53.582;10.112;2022-09-23T04:56:10;101678.28;;;8.11
69857;BMP280;57147;53.582;10.112;2022-09-23T05:01:13;101683.44;;;8.22
69857;BMP280;57147;53.582;10.112;2022-09-23T05:06:17;101666.41;;;8.13
69857;BMP280;57147;53.582;10.112;2022-09-23T05:11:17;101645.63;;;8.00
69857;BMP280;57147;53.582;10.112;2022-09-23T05:16:19;101661.09;;;8.13
69857;BMP280;57147;53.582;10.112;2022-09-23T05:21:24;101684.25;;;8.28
69857;BMP280;57147;53.582;10.112;2022-09-23T05:26:26;101686.13;;;8.27
69857;BMP280;57147;53.582;10.112;2022-09-23T05:31:28;101680.34;;;8.30
69857;BMP280;57147;53.582;10.112;2022-09-23T05:36:33;101676.16;;;8.39
69857;BMP280;57147;53.582;10.112;2022-09-23T05:41:35;101661.38;;;8.44
69857;BMP280;57147;53.582;10.112;2022-09-23T05:46:35;101678.50;;;8.63
69857;BMP280;57147;53.582;10.112;2022-09-23T05:51:39;101680.16;;;8.74
69857;BMP280;57147;53.582;10.112;2022-09-23T05:56:40;101652.53;;;8.65
69857;BMP280;57147;53.582;10.112;2022-09-23T06:01:42;101665.69;;;8.87
69857;BMP280;57147;53.582;10.112;2022-09-23T06:06:45;101674.84;;;9.06
69857;BMP280;57147;53.582;10.112;2022-09-23T06:11:46;101673.81;;;9.12
69857;BMP280;57147;53.582;10.112;2022-09-23T06:16:46;101665.88;;;9.17
69857;BMP280;57147;53.582;10.112;2022-09-23T06:21:50;101670.41;;;9.22
69857;BMP280;57147;53.582;10.112;2022-09-23T06:26:50;101668.28;;;9.19
69857;BMP280;57147;53.582;10.112;2022-09-23T06:31:51;101667.72;;;9.17
69857;BMP280;57147;53.582;10.112;2022-09-23T06:36:54;101673.00;;;9.11
69857;BMP280;57147;53.582;10.112;2022-09-23T06:41:54;101667.97;;;9.10
69857;BMP280;57147;53.582;10.112;2022-09-23T06:46:55;101643.72;;;8.86
69857;BMP280;57147;53.582;10.112;2022-09-23T06:51:58;101672.94;;;9.01
69857;BMP280;57147;53.582;10.112;2022-09-23T06:56:59;101668.44;;;9.02
69857;BMP280;57147;53.582;10.112;2022-09-23T07:02:03;101654.38;;;8.96
69857;BMP280;57147;53.582;10.112;2022-09-23T07:07:06;101636.03;;;8.85
69857;BMP280;57147;53.582;10.112;2022-09-23T07:12:07;101678.56;;;9.10
69857;BMP280;57147;53.582;10.112;2022-09-23T07:17:07;101673.06;;;9.22
69857;BMP280;57147;53.582;10.112;2022-09-23T07:22:10;101585.44;;;8.86
69857;BMP280;57147;53.582;10.112;2022-09-23T07:27:11;101676.16;;;9.61
69857;BMP280;57147;53.582;10.112;2022-09-23T07:32:12;101679.13;;;9.79
69857;BMP280;57147;53.582;10.112;2022-09-23T07:37:16;101665.34;;;9.82
69857;BMP280;57147;53.582;10.112;2022-09-23T07:42:17;101685.56;;;10.04
69857;BMP280;57147;53.582;10.112;2022-09-23T07:47:17;101694.09;;;10.31
69857;BMP280;57147;53.582;10.112;2022-09-23T07:52:20;101683.97;;;10.63
69857;BMP280;57147;53.582;10.112;2022-09-23T07:57:21;101652.91;;;10.64
69857;BMP280;57147;53.582;10.112;2022-09-23T08:02:22;101694.00;;;11.07
69857;BMP280;57147;53.582;10.112;2022-09-23T08:07:25;101683.56;;;11.31
69857;BMP280;57147;53.582;10.112;2022-09-23T08:12:26;101627.56;;;11.12
69857;BMP280;57147;53.582;10.112;2022-09-23T08:17:27;101649.19;;;11.49
69857;BMP280;57147;53.582;10.112;2022-09-23T08:22:30;101643.31;;;11.52
69857;BMP280;57147;53.582;10.112;2022-09-23T08:27:31;101683.84;;;11.78
69857;BMP280;57147;53.582;10.112;2022-09-23T08:32:32;101681.00;;;11.70
69857;BMP280;57147;53.582;10.112;2022-09-23T08:37:35;101663.00;;;11.51
69857;BMP280;57147;53.582;10.112;2022-09-23T08:42:38;101679.16;;;11.65
69857;BMP280;57147;53.582;10.112;2022-09-23T08:47:43;101652.56;;;11.65
69857;BMP280;57147;53.582;10.112;2022-09-23T08:52:51;101670.47;;;11.93
69857;BMP280;57147;53.582;10.112;2022-09-23T08:58:01;101673.25;;;12.12
69857;BMP280;57147;53.582;10.112;2022-09-23T09:03:18;101655.53;;;12.31
69857;BMP280;57147;53.582;10.112;2022-09-23T09:08:25;101659.09;;;12.46
69857;BMP280;57147;53.582;10.112;2022-09-23T09:13:30;101648.69;;;12.73
69857;BMP280;57147;53.582;10.112;2022-09-23T09:18:33;101649.31;;;12.89
69857;BMP280;57147;53.582;10.112;2022-09-23T09:23:44;101635.84;;;12.80
69857;BMP280;57147;53.582;10.112;2022-09-23T09:28:48;101645.03;;;12.93
69857;BMP280;57147;53.582;10.112;2022-09-23T09:33:53;101641.38;;;13.07
69857;BMP280;57147;53.582;10.112;2022-09-23T09:38:59;101621.53;;;13.18
69857;BMP280;57147;53.582;10.112;2022-09-23T09:44:01;101630.22;;;13.43
69857;BMP280;57147;53.582;10.112;2022-09-23T09:49:11;101615.66;;;13.54
69857;BMP280;57147;53.582;10.112;2022-09-23T09:54:21;101620.84;;;13.96
69857;BMP280;57147;53.582;10.112;2022-09-23T09:59:25;101616.19;;;14.48
69857;BMP280;57147;53.582;10.112;2022-09-23T10:04:30;101610.28;;;15.01
69857;BMP280;57147;53.582;10.112;2022-09-23T10:09:37;101606.50;;;15.38
69857;BMP280;57147;53.582;10.112;2022-09-23T10:14:38;101601.16;;;15.38
69857;BMP280;57147;53.582;10.112;2022-09-23T10:19:43;101591.53;;;15.59
69857;BMP280;57147;53.582;10.112;2022-09-23T10:24:51;101582.09;;;15.84
69857;BMP280;57147;53.582;10.112;2022-09-23T10:29:54;101578.25;;;16.63
69857;BMP280;57147;53.582;10.112;2022-09-23T10:34:58;101573.38;;;16.74
69857;BMP280;57147;53.582;10.112;2022-09-23T10:40:12;101581.88;;;17.10
69857;BMP280;57147;53.582;10.112;2022-09-23T10:45:17;101585.81;;;17.30
69857;BMP280;57147;53.582;10.112;2022-09-23T10:50:27;101584.81;;;17.61
69857;BMP280;57147;53.582;10.112;2022-09-23T10:55:41;101578.94;;;18.05
69857;BMP280;57147;53.582;10.112;2022-09-23T11:00:47;101573.81;;;18.21
69857;BMP280;57147;53.582;10.112;2022-09-23T11:06:03;101567.50;;;18.17
69857;BMP280;57147;53.582;10.112;2022-09-23T11:11:23;101561.13;;;18.83
69857;BMP280;57147;53.582;10.112;2022-09-23T11:16:40;101546.66;;;18.76
69857;BMP280;57147;53.582;10.112;2022-09-23T11:22:14;101544.78;;;18.56
69857;BMP280;57147;53.582;10.112;2022-09-23T11:27:29;101534.94;;;18.92
69857;BMP280;57147;53.582;10.112;2022-09-23T11:32:47;101541.03;;;19.47
69857;BMP280;57147;53.582;10.112;2022-09-23T11:37:57;101529.78;;;19.20
69857;BMP280;57147;53.582;10.112;2022-09-23T11:43:06;101520.78;;;18.83
69857;BMP280;57147;53.582;10.112;2022-09-23T11:48:15;101516.44;;;19.24
69857;BMP280;57147;53.582;10.112;2022-09-23T11:53:21;101512.25;;;19.14
69857;BMP280;57147;53.582;10.112;2022-09-23T11:58:27;101494.97;;;19.03
69857;BMP280;57147;53.582;10.112;2022-09-23T12:03:37;101502.84;;;19.20
69857;BMP280;57147;53.582;10.112;2022-09-23T12:08:40;101501.38;;;18.78
69857;BMP280;57147;53.582;10.112;2022-09-23T12:13:48;101500.78;;;18.39
69857;BMP280;57147;53.582;10.112;2022-09-23T12:18:57;101487.97;;;18.36
69857;BMP280;57147;53.582;10.112;2022-09-23T12:24:15;101485.88;;;18.63
69857;BMP280;57147;53.582;10.112;2022-09-23T12:29:25;101484.19;;;19.03
69857;BMP280;57147;53.582;10.112;2022-09-23T12:34:29;101482.44;;;19.19
69857;BMP280;57147;53.582;10.112;2022-09-23T12:39:33;101475.03;;;19.65
69857;BMP280;57147;53.582;10.112;2022-09-23T12:44:38;101472.28;;;19.89
69857;BMP280;57147;53.582;10.112;2022-09-23T12:49:39;101467.16;;;19.72
69857;BMP280;57147;53.582;10.112;2022-09-23T12:54:41;101470.09;;;19.67
69857;BMP280;57147;53.582;10.112;2022-09-23T13:00:13;101462.69;;;19.27
69857;BMP280;57147;53.582;10.112;2022-09-23T13:05:20;101459.75;;;19.08
69857;BMP280;57147;53.582;10.112;2022-09-23T13:10:27;101458.41;;;19.14
69857;BMP280;57147;53.582;10.112;2022-09-23T13:15:33;101438.41;;;18.91
69857;BMP280;57147;53.582;10.112;2022-09-23T13:20:36;101432.63;;;19.25
69857;BMP280;57147;53.582;10.112;2022-09-23T13:25:38;101434.81;;;19.72
69857;BMP280;57147;53.582;10.112;2022-09-23T13:30:49;101419.13;;;19.62
69857;BMP280;57147;53.582;10.112;2022-09-23T13:35:51;101427.19;;;19.74
69857;BMP280;57147;53.582;10.112;2022-09-23T13:40:57;101420.88;;;19.82
69857;BMP280;57147;53.582;10.112;2022-09-23T13:46:02;101416.19;;;19.79
69857;BMP280;57147;53.582;10.112;2022-09-23T13:51:08;101417.38;;;19.29
69857;BMP280;57147;53.582;10.112;2022-09-23T13:56:12;101415.22;;;19.35
69857;BMP280;57147;53.582;10.112;2022-09-23T14:01:21;101417.69;;;18.91
69857;BMP280;57147;53.582;10.112;2022-09-23T14:06:22;101382.81;;;19.07
69857;BMP280;57147;53.582;10.112;2022-09-23T14:11:28;101400.06;;;18.94
69857;BMP280;57147;53.582;10.112;2022-09-23T14:16:35;101393.84;;;18.57
69857;BMP280;57147;53.582;10.112;2022-09-23T14:21:38;101392.19;;;18.89
69857;BMP280;57147;53.582;10.112;2022-09-23T14:26:39;101386.28;;;18.96
69857;BMP280;57147;53.582;10.112;2022-09-23T14:31:45;101379.66;;;19.05
69857;BMP280;57147;53.582;10.112;2022-09-23T14:36:49;101383.69;;;18.87
69857;BMP280;57147;53.582;10.112;2022-09-23T14:41:49;101382.56;;;18.10
69857;BMP280;57147;53.582;10.112;2022-09-23T14:46:55;101358.31;;;17.98
69857;BMP280;57147;53.582;10.112;2022-09-23T14:51:58;101369.78;;;18.07
69857;BMP280;57147;53.582;10.112;2022-09-23T14:57:00;101374.44;;;17.98
69857;BMP280;57147;53.582;10.112;2022-09-23T15:07:41;101373.13;;;17.63
69857;BMP280;57147;53.582;10.112;2022-09-23T15:12:43;101366.66;;;17.64
69857;BMP280;57147;53.582;10.112;2022-09-23T15:17:44;101359.88;;;17.58
69857;BMP280;57147;53.582;10.112;2022-09-23T15:22:50;101362.38;;;17.63
69857;BMP280;57147;53.582;10.112;2022-09-23T15:28:03;101351.56;;;17.21
69857;BMP280;57147;53.582;10.112;2022-09-23T15:33:14;101355.81;;;17.14
69857;BMP280;57147;53.582;10.112;2022-09-23T15:38:18;101355.59;;;16.98
69857;BMP280;57147;53.582;10.112;2022-09-23T15:43:20;101356.69;;;16.97
69857;BMP280;57147;53.582;10.112;2022-09-23T15:48:23;101357.69;;;16.92
69857;BMP280;57147;53.582;10.112;2022-09-23T15:53:27;101356.94;;;16.75
69857;BMP280;57147;53.582;10.112;2022-09-23T15:58:28;101361.03;;;16.72
69857;BMP280;57147;53.582;10.112;2022-09-23T16:03:28;101359.97;;;16.64
69857;BMP280;57147;53.582;10.112;2022-09-23T16:08:32;101345.59;;;16.69
69857;BMP280;57147;53.582;10.112;2022-09-23T16:13:32;101341.66;;;16.67
69857;BMP280;57147;53.582;10.112;2022-09-23T16:18:33;101342.97;;;16.35
69857;BMP280;57147;53.582;10.112;2022-09-23T16:23:39;101330.69;;;16.25
69857;BMP280;57147;53.582;10.112;2022-09-23T16:28:41;101339.63;;;16.12
69857;BMP280;57147;53.582;10.112;2022-09-23T16:33:42;101329.41;;;15.97
69857;BMP280;57147;53.582;10.112;2022-09-23T16:38:45;101331.63;;;15.95
69857;BMP280;57147;53.582;10.112;2022-09-23T16:43:46;101333.53;;;15.86
69857;BMP280;57147;53.582;10.112;2022-09-23T16:48:46;101330.06;;;15.77
69857;BMP280;57147;53.582;10.112;2022-09-23T16:53:50;101328.75;;;15.65
69857;BMP280;57147;53.582;10.112;2022-09-23T16:58:50;101335.97;;;15.56
69857;BMP280;57147;53.582;10.112;2022-09-23T17:03:51;101324.91;;;15.41
69857;BMP280;57147;53.582;10.112;2022-09-23T17:08:54;101334.78;;;15.31
69857;BMP280;57147;53.582;10.112;2022-09-23T17:13:55;101334.75;;;15.14
69857;BMP280;57147;53.582;10.112;2022-09-23T17:18:56;101305.19;;;14.88
69857;BMP280;57147;53.582;10.112;2022-09-23T17:23:59;101335.31;;;15.03
69857;BMP280;57147;53.582;10.112;2022-09-23T17:29:00;101337.03;;;14.99
69857;BMP280;57147;53.582;10.112;2022-09-23T17:34:01;101332.59;;;14.94
69857;BMP280;57147;53.582;10.112;2022-09-23T17:39:04;101333.41;;;14.72
69857;BMP280;57147;53.582;10.112;2022-09-23T17:44:04;101329.88;;;14.63
69857;BMP280;57147;53.582;10.112;2022-09-23T17:49:05;101328.56;;;14.52
69857;BMP280;57147;53.582;10.112;2022-09-23T17:54:08;101323.81;;;14.49
69857;BMP280;57147;53.582;10.112;2022-09-23T17:59:10;101329.75;;;14.46
69857;BMP280;57147;53.582;10.112;2022-09-23T18:04:11;101330.81;;;14.36
69857;BMP280;57147;53.582;10.112;2022-09-23T18:09:14;101323.72;;;14.32
69857;BMP280;57147;53.582;10.112;2022-09-23T18:14:17;101323.94;;;14.22
69857;BMP280;57147;53.582;10.112;2022-09-23T18:19:20;101324.91;;;14.26
69857;BMP280;57147;53.582;10.112;2022-09-23T18:24:23;101338.16;;;14.31
69857;BMP280;57147;53.582;10.112;2022-09-23T18:29:24;101336.19;;;14.23
69857;BMP280;57147;53.582;10.112;2022-09-23T18:34:25;101341.66;;;14.18
69857;BMP280;57147;53.582;10.112;2022-09-23T18:39:28;101333.34;;;14.19
69857;BMP280;57147;53.582;10.112;2022-09-23T18:44:29;101331.47;;;14.20
69857;BMP280;57147;53.582;10.112;2022-09-23T18:49:29;101335.63;;;14.12
69857;BMP280;57147;53.582;10.112;2022-09-23T18:54:33;101330.09;;;14.09
69857;BMP280;57147;53.582;10.112;2022-09-23T18:59:33;101328.94;;;14.01
69857;BMP280;57147;53.582;10.112;2022-09-23T19:04:34;101334.69;;;13.94
69857;BMP280;57147;53.582;10.112;2022-09-23T19:09:37;101341.53;;;13.87
69857;BMP280;57147;53.582;10.112;2022-09-23T19:14:37;101340.84;;;13.81
69857;BMP280;57147;53.582;10.112;2022-09-23T19:19:38;101343.41;;;13.86
69857;BMP280;57147;53.582;10.112;2022-09-23T19:24:41;101338.44;;;13.93
69857;BMP280;57147;53.582;10.112;2022-09-23T19:29:42;101332.09;;;13.89
69857;BMP280;57147;53.582;10.112;2022-09-23T19:34:43;101335.28;;;13.78
69857;BMP280;57147;53.582;10.112;2022-09-23T19:39:46;101324.31;;;13.79
69857;BMP280;57147;53.582;10.112;2022-09-23T19:44:46;101325.22;;;13.75
69857;BMP280;57147;53.582;10.112;2022-09-23T19:49:47;101328.00;;;13.70
69857;BMP280;57147;53.582;10.112;2022-09-23T19:54:50;101318.28;;;13.60
69857;BMP280;57147;53.582;10.112;2022-09-23T19:59:51;101313.19;;;13.50
69857;BMP280;57147;53.582;10.112;2022-09-23T20:04:51;101303.31;;;13.50
69857;BMP280;57147;53.582;10.112;2022-09-23T20:09:54;101306.63;;;13.56
69857;BMP280;57147;53.582;10.112;2022-09-23T20:14:55;101310.78;;;13.62
69857;BMP280;57147;53.582;10.112;2022-09-23T20:20:00;101297.66;;;13.66
69857;BMP280;57147;53.582;10.112;2022-09-23T20:25:04;101298.34;;;13.71
69857;BMP280;57147;53.582;10.112;2022-09-23T20:30:06;101290.91;;;13.68
69857;BMP280;57147;53.582;10.112;2022-09-23T20:35:07;101284.31;;;13.66
69857;BMP280;57147;53.582;10.112;2022-09-23T20:40:10;101285.06;;;13.66
69857;BMP280;57147;53.582;10.112;2022-09-23T20:45:11;101280.34;;;13.63
69857;BMP280;57147;53.582;10.112;2022-09-23T20:50:12;101269.09;;;13.52
69857;BMP280;57147;53.582;10.112;2022-09-23T20:55:15;101276.16;;;13.48
69857;BMP280;57147;53.582;10.112;2022-09-23T21:00:16;101276.44;;;13.47
69857;BMP280;57147;53.582;10.112;2022-09-23T21:05:16;101269.53;;;13.46
69857;BMP280;57147;53.582;10.112;2022-09-23T21:10:20;101271.69;;;13.44
69857;BMP280;57147;53.582;10.112;2022-09-23T21:15:20;101269.03;;;13.44
69857;BMP280;57147;53.582;10.112;2022-09-23T21:20:21;101269.31;;;13.42
69857;BMP280;57147;53.582;10.112;2022-09-23T21:25:24;101257.19;;;13.36
69857;BMP280;57147;53.582;10.112;2022-09-23T21:30:25;101253.22;;;13.34
69857;BMP280;57147;53.582;10.112;2022-09-23T21:35:25;101246.13;;;13.29
69857;BMP280;57147;53.582;10.112;2022-09-23T21:40:29;101260.81;;;13.27
69857;BMP280;57147;53.582;10.112;2022-09-23T21:45:29;101261.44;;;13.24
69857;BMP280;57147;53.582;10.112;2022-09-23T21:50:30;101261.03;;;13.16
69857;BMP280;57147;53.582;10.112;2022-09-23T21:55:33;101263.00;;;13.11
69857;BMP280;57147;53.582;10.112;2022-09-23T22:00:33;101257.44;;;13.07
69857;BMP280;57147;53.582;10.112;2022-09-23T22:05:34;101259.03;;;13.08
69857;BMP280;57147;53.582;10.112;2022-09-23T22:10:38;101258.03;;;13.04
69857;BMP280;57147;53.582;10.112;2022-09-23T22:15:38;101249.56;;;13.16
69857;BMP280;57147;53.582;10.112;2022-09-23T22:20:39;101259.22;;;13.26
69857;BMP280;57147;53.582;10.112;2022-09-23T22:25:42;101258.84;;;13.32
69857;BMP280;57147;53.582;10.112;2022-09-23T22:30:43;101253.81;;;13.31
69857;BMP280;57147;53.582;10.112;2022-09-23T22:35:43;101250.06;;;13.32
69857;BMP280;57147;53.582;10.112;2022-09-23T22:40:46;101210.56;;;13.06
69857;BMP280;57147;53.582;10.112;2022-09-23T22:45:48;101249.16;;;13.23
69857;BMP280;57147;53.582;10.112;2022-09-23T22:50:48;101248.56;;;13.26
69857;BMP280;57147;53.582;10.112;2022-09-23T22:55:58;101253.91;;;13.26
69857;BMP280;57147;53.582;10.112;2022-09-23T23:00:59;101249.16;;;13.23
69857;BMP280;57147;53.582;10.112;2022-09-23T23:06:00;101248.66;;;13.21
69857;BMP280;57147;53.582;10.112;2022-09-23T23:11:05;101235.53;;;13.10
69857;BMP280;57147;53.582;10.112;2022-09-23T23:16:08;101243.53;;;13.10
69857;BMP280;57147;53.582;10.112;2022-09-23T23:21:11;101236.72;;;13.04
69857;BMP280;57147;53.582;10.112;2022-09-23T23:26:16;101233.34;;;12.99
69857;BMP280;57147;53.582;10.112;2022-09-23T23:31:17;101232.06;;;12.96
69857;BMP280;57147;53.582;10.112;2022-09-23T23:36:19;101226.25;;;12.94
69857;BMP280;57147;53.582;10.112;2022-09-23T23:41:23;101222.47;;;12.95
69857;BMP280;57147;53.582;10.112;2022-09-23T23:46:24;101220.91;;;12.94
69857;BMP280;57147;53.582;10.112;2022-09-23T23:51:26;101218.63;;;12.88
69857;BMP280;57147;53.582;10.112;2022-09-23T23:56:29;101208.22;;;12.72
